Jersey — WDF7218 — position and weather

sailwx.info

Track history (hours):
 
Tides and Currents Weather Stations Pressure Air Temp Water Temp Dewpoint Dewpoint Depression Visibility Wind Speed Wind Dir Waves Ship Positions

Jersey

Owner: BillyBey Ferry Company, Weehawken, NJ. More information available from US FCC via Universal Licensing System and Coast Guard Vessel Documentation Center.

Last reported at 2017-Sep-19 18:30 UTC. Time now 2017-Sep-19 18:40 UTC.
Position N 40°43' W 074°01'.

Length 22 m.

Type: Passenger vessel. MMSI: 367482250.

Date/timePositionNaut miles runAvg speedWind from/ knotsBaromVisibWave heightAir tempDewpointWater temp
2017-Sep-19 18:30N 40°43' W 074°01'0 0.0
2017-Sep-19 18:00N 40°43' W 074°01'0 0.0
2017-Sep-19 17:30N 40°43' W 074°01'0 0.0
2017-Sep-19 17:00N 40°43' W 074°01'0 0.0
2017-Sep-19 16:30N 40°43' W 074°01'0 0.0
2017-Sep-19 16:00N 40°43' W 074°01'0 0.0
2017-Sep-19 15:30N 40°43' W 074°01'0 0.0
2017-Sep-19 15:00N 40°43' W 074°01'0 0.1
2017-Sep-19 14:30N 40°43' W 074°01'0 0.0
2017-Sep-19 14:00N 40°43' W 074°01'0 0.0
2017-Sep-19 13:30N 40°43' W 074°01'0 0.0
2017-Sep-19 13:00N 40°43' W 074°01'0 0.0
2017-Sep-19 12:31N 40°43' W 074°01'0 0.0
2017-Sep-19 12:01N 40°43' W 074°01'0 0.1
2017-Sep-19 11:30N 40°43' W 074°01'0 0.1
2017-Sep-19 11:00N 40°43' W 074°01'0 0.0
2017-Sep-19 10:30N 40°43' W 074°01'1 2.6
2017-Sep-19 10:00N 40°44' W 074°02'2 4.5
2017-Sep-19 09:30N 40°46' W 074°01'0 0.0
2017-Sep-18 23:52N 40°46' W 074°01'4 9.7
2017-Sep-18 23:30N 40°43' W 074°02'0 0.1
2017-Sep-18 23:00N 40°43' W 074°02'0 0.0
2017-Sep-18 22:30N 40°43' W 074°02'0 0.0
2017-Sep-18 22:00N 40°43' W 074°02'0 0.4
2017-Sep-18 21:30N 40°43' W 074°02'0 0.3
2017-Sep-18 21:00N 40°43' W 074°02'0 0.1
2017-Sep-18 20:31N 40°43' W 074°02'0 0.1
2017-Sep-18 20:01N 40°43' W 074°02'0 0.1
2017-Sep-18 19:30N 40°43' W 074°02'0 0.2
2017-Sep-18 19:00N 40°43' W 074°02'0 0.2
2017-Sep-18 18:31N 40°43' W 074°02'0 0.1
2017-Sep-18 18:01N 40°43' W 074°02'0 0.2
2017-Sep-18 17:30N 40°43' W 074°02'0 0.1
2017-Sep-18 17:00N 40°43' W 074°02'0 0.2
2017-Sep-18 16:31N 40°43' W 074°02'0 0.0
2017-Sep-18 16:00N 40°43' W 074°02'0 0.0
2017-Sep-18 15:30N 40°43' W 074°02'0 0.1
2017-Sep-18 15:00N 40°43' W 074°02'0 0.1
2017-Sep-18 14:30N 40°43' W 074°02'0 0.1
2017-Sep-18 14:00N 40°43' W 074°02'0 0.1
2017-Sep-18 13:30N 40°43' W 074°02'0 0.0
2017-Sep-18 13:01N 40°43' W 074°02'0 0.2
2017-Sep-18 12:31N 40°43' W 074°02'0 0.1
2017-Sep-18 12:01N 40°43' W 074°02'0 0.1
2017-Sep-18 11:30N 40°43' W 074°02'0 0.0
2017-Sep-18 11:00N 40°43' W 074°02'0 0.3
2017-Sep-18 10:30N 40°43' W 074°02'0 0.3
2017-Sep-18 10:01N 40°43' W 074°02'  
2017-Sep-16 00:28N 40°44' W 074°02'2 4.9
2017-Sep-16 00:00N 40°46' W 074°01'4 7.1
2017-Sep-15 23:30N 40°43' W 074°02'0 0.4
2017-Sep-15 23:00N 40°43' W 074°02'0 0.3
2017-Sep-15 22:30N 40°43' W 074°02'0 0.3
2017-Sep-15 22:01N 40°43' W 074°02'0 0.0
2017-Sep-15 21:30N 40°43' W 074°02'0 0.1
2017-Sep-15 21:00N 40°43' W 074°02'0 0.1
2017-Sep-15 20:30N 40°43' W 074°02'0 0.0
2017-Sep-15 20:00N 40°43' W 074°02'0 0.2
2017-Sep-15 19:30N 40°43' W 074°02'0 0.2
2017-Sep-15 19:01N 40°43' W 074°02'0 0.0
2017-Sep-15 18:31N 40°43' W 074°02'0 0.0
2017-Sep-15 18:00N 40°43' W 074°02'0 0.0
2017-Sep-15 17:30N 40°43' W 074°02'0 0.1
2017-Sep-15 17:00N 40°43' W 074°02'0 0.1
2017-Sep-15 16:30N 40°43' W 074°02'0 0.0
2017-Sep-15 16:00N 40°43' W 074°02'0 0.0
2017-Sep-15 15:30N 40°43' W 074°02'0 0.1
2017-Sep-15 15:00N 40°43' W 074°02'0 0.2
2017-Sep-15 14:30N 40°43' W 074°02'0 0.3
2017-Sep-15 14:00N 40°43' W 074°02'0 0.1
2017-Sep-15 13:30N 40°43' W 074°02'0 0.1
2017-Sep-15 13:00N 40°43' W 074°02'0 0.4
2017-Sep-15 12:31N 40°43' W 074°02'0 0.3
2017-Sep-15 12:00N 40°43' W 074°02'0 0.0
2017-Sep-15 11:30N 40°43' W 074°02'0 0.3
2017-Sep-15 11:01N 40°43' W 074°02'0 0.3
2017-Sep-15 10:30N 40°43' W 074°02'0 0.2
2017-Sep-15 10:00N 40°43' W 074°02'1 0.2
2017-Sep-15 03:11N 40°44' W 074°02'1 7.0
2017-Sep-15 03:01N 40°43' W 074°01'0 0.9
2017-Sep-15 02:31N 40°43' W 074°02'1 1.0
2017-Sep-15 02:00N 40°43' W 074°01'1 1.2
2017-Sep-15 01:31N 40°43' W 074°02'1 1.3
2017-Sep-15 01:00N 40°43' W 074°01'1 1.2
2017-Sep-15 00:30N 40°43' W 074°02'1 1.2
2017-Sep-15 00:00N 40°43' W 074°01'0 0.0
2017-Sep-14 23:30N 40°43' W 074°01'0 0.0
2017-Sep-14 23:00N 40°43' W 074°01'0 0.0
2017-Sep-14 22:00N 40°43' W 074°01'0 0.0
2017-Sep-14 21:30N 40°43' W 074°01'0 0.0
2017-Sep-14 21:00N 40°43' W 074°01'0 0.0
2017-Sep-14 20:30N 40°43' W 074°01'0 0.1
2017-Sep-14 20:00N 40°43' W 074°01'0 0.0
2017-Sep-14 19:30N 40°43' W 074°01'0 0.1
2017-Sep-14 19:00N 40°43' W 074°01'0 0.1
2017-Sep-14 18:30N 40°43' W 074°01'0 0.1
2017-Sep-14 18:00N 40°43' W 074°01'0 0.0
2017-Sep-14 17:30N 40°43' W 074°01'0 0.1
2017-Sep-14 17:00N 40°43' W 074°01'0 0.0
2017-Sep-14 16:30N 40°43' W 074°01'0 0.0
2017-Sep-14 16:00N 40°43' W 074°01'0 0.0
2017-Sep-14 15:30N 40°43' W 074°01'0 0.0
2017-Sep-14 15:01N 40°43' W 074°01'0 0.0
2017-Sep-14 14:30N 40°43' W 074°01'0 0.0
2017-Sep-14 14:00N 40°43' W 074°01'0 0.0
2017-Sep-14 13:30N 40°43' W 074°01'0 0.0
2017-Sep-14 13:00N 40°43' W 074°01'0 0.1
2017-Sep-14 12:30N 40°43' W 074°01'0 0.1
2017-Sep-14 12:00N 40°43' W 074°01'0 0.1
2017-Sep-14 11:30N 40°43' W 074°01'0 0.0
2017-Sep-14 11:00N 40°43' W 074°01'0 0.0
2017-Sep-14 10:30N 40°43' W 074°01'1 2.6
2017-Sep-14 10:00N 40°44' W 074°02'0 0.0
2017-Sep-14 00:26N 40°44' W 074°02'2 5.2
2017-Sep-14 00:00N 40°46' W 074°01'4 7.0
2017-Sep-13 23:30N 40°43' W 074°02'0 0.1
2017-Sep-13 23:00N 40°43' W 074°02'0 0.1
2017-Sep-13 22:31N 40°43' W 074°02'0 0.2
2017-Sep-13 22:00N 40°43' W 074°02'0 0.2
2017-Sep-13 21:30N 40°43' W 074°02'0 0.1
2017-Sep-13 21:00N 40°43' W 074°02'0 0.1
2017-Sep-13 20:30N 40°43' W 074°02'0 0.1
2017-Sep-13 20:00N 40°43' W 074°02'0 0.1
2017-Sep-13 19:30N 40°43' W 074°02'0 0.1
2017-Sep-13 19:00N 40°43' W 074°02'0 0.2
2017-Sep-13 18:30N 40°43' W 074°02'0 0.1
2017-Sep-13 18:01N 40°43' W 074°02'0 0.2
2017-Sep-13 17:30N 40°43' W 074°02'0 0.0
2017-Sep-13 17:00N 40°43' W 074°02'0 0.0
2017-Sep-13 16:30N 40°43' W 074°02'0 0.0
2017-Sep-13 16:00N 40°43' W 074°02'0 0.0
2017-Sep-13 15:30N 40°43' W 074°02'0 0.2
2017-Sep-13 15:00N 40°43' W 074°02'0 0.1
2017-Sep-13 14:30N 40°43' W 074°02'0 0.0
2017-Sep-13 14:00N 40°43' W 074°02'0 0.1
2017-Sep-13 13:30N 40°43' W 074°02'0 0.0
2017-Sep-13 13:01N 40°43' W 074°02'0 0.1
2017-Sep-13 12:30N 40°43' W 074°02'0 0.0
2017-Sep-13 12:00N 40°43' W 074°02'0 0.1
2017-Sep-13 11:30N 40°43' W 074°02'0 0.1
2017-Sep-13 11:00N 40°43' W 074°02'0 0.1
2017-Sep-13 10:31N 40°43' W 074°02'0 0.1
2017-Sep-13 10:00N 40°43' W 074°02'1 2.6
2017-Sep-13 09:30N 40°44' W 074°02'0 0.0
2017-Sep-13 03:12N 40°44' W 074°02'1 6.5
2017-Sep-13 03:00N 40°43' W 074°01'1 1.1
2017-Sep-13 02:30N 40°43' W 074°02'1 1.0
2017-Sep-13 02:00N 40°43' W 074°01'1 1.1
2017-Sep-13 01:30N 40°43' W 074°02'1 1.0
2017-Sep-13 01:00N 40°43' W 074°01'0 0.9
2017-Sep-13 00:30N 40°43' W 074°02'1 1.1
2017-Sep-13 00:00N 40°43' W 074°01'0 0.0
2017-Sep-12 23:31N 40°43' W 074°01'0 0.0
2017-Sep-12 23:00N 40°43' W 074°01'0 0.0
2017-Sep-12 22:30N 40°43' W 074°01'0 0.0
2017-Sep-12 22:00N 40°43' W 074°01'0 0.1
2017-Sep-12 21:30N 40°43' W 074°01'0 0.0
2017-Sep-12 21:00N 40°43' W 074°01'0 0.1
2017-Sep-12 20:31N 40°43' W 074°01'0 0.0
2017-Sep-12 20:00N 40°43' W 074°01'0 0.1
2017-Sep-12 19:31N 40°43' W 074°01'0 0.1
2017-Sep-12 19:01N 40°43' W 074°01'0 0.2
2017-Sep-12 18:30N 40°43' W 074°01'0 0.1
2017-Sep-12 18:00N 40°43' W 074°01'0 0.0
2017-Sep-12 17:30N 40°43' W 074°01'0 0.0
2017-Sep-12 17:00N 40°43' W 074°01'0 0.0
2017-Sep-12 16:30N 40°43' W 074°01'0 0.1
2017-Sep-12 16:00N 40°43' W 074°01'0 0.0
2017-Sep-12 15:30N 40°43' W 074°01'0 0.0
2017-Sep-12 15:00N 40°43' W 074°01'0 0.0
2017-Sep-12 14:30N 40°43' W 074°01'0 0.0
2017-Sep-12 14:01N 40°43' W 074°01'0 0.0
2017-Sep-12 13:31N 40°43' W 074°01'0 0.0
2017-Sep-12 13:01N 40°43' W 074°01'0 0.0
2017-Sep-12 12:31N 40°43' W 074°01'0 0.1
2017-Sep-12 12:00N 40°43' W 074°01'0 0.1
2017-Sep-12 11:30N 40°43' W 074°01'0 0.0
2017-Sep-12 11:00N 40°43' W 074°01'0 0.0
2017-Sep-12 10:30N 40°43' W 074°01'1 2.6
2017-Sep-12 10:01N 40°44' W 074°02'0 0.0
2017-Sep-12 00:24N 40°44' W 074°02'2 5.7
2017-Sep-12 00:00N 40°46' W 074°01'4 7.0
2017-Sep-11 23:30N 40°43' W 074°02'0 0.1
2017-Sep-11 23:01N 40°43' W 074°02'0 0.1
2017-Sep-11 22:30N 40°43' W 074°02'0 0.1
2017-Sep-11 22:00N 40°43' W 074°02'0 0.0
2017-Sep-11 21:30N 40°43' W 074°02'0 0.1
2017-Sep-11 21:00N 40°43' W 074°02'0 0.2
2017-Sep-11 20:31N 40°43' W 074°02'0 0.3
2017-Sep-11 20:01N 40°43' W 074°02'0 0.1
2017-Sep-11 19:31N 40°43' W 074°02'0 0.1
2017-Sep-11 19:01N 40°43' W 074°02'0 0.1
2017-Sep-11 18:31N 40°43' W 074°02'0 0.2
2017-Sep-11 18:01N 40°43' W 074°02'0 0.1
2017-Sep-11 17:31N 40°43' W 074°02'0 0.2
2017-Sep-11 17:01N 40°43' W 074°02'0 0.1
2017-Sep-11 16:30N 40°43' W 074°02'0 0.1
2017-Sep-11 16:01N 40°43' W 074°02'0 0.0
2017-Sep-11 15:30N 40°43' W 074°02'0 0.0
2017-Sep-11 15:00N 40°43' W 074°02'0 0.0
2017-Sep-11 14:30N 40°43' W 074°02'0 0.0
2017-Sep-11 14:00N 40°43' W 074°02'0 0.1
2017-Sep-11 13:30N 40°43' W 074°02'0 0.1
2017-Sep-11 13:01N 40°43' W 074°02'0 0.1
2017-Sep-11 12:30N 40°43' W 074°02'0 0.1
2017-Sep-11 12:00N 40°43' W 074°02'0 0.3
2017-Sep-11 11:30N 40°43' W 074°02'0 0.1
2017-Sep-11 11:01N 40°43' W 074°02'0 0.2
2017-Sep-11 10:30N 40°43' W 074°02'0 0.1
2017-Sep-11 10:00N 40°43' W 074°02'  
Track history (hours):
 
Tides and Currents Weather Stations Pressure Air Temp Water Temp Dewpoint Dewpoint Depression Visibility Wind Speed Wind Dir Waves Ship Positions

Jersey

Owner: BillyBey Ferry Company, Weehawken, NJ. More information available from US FCC via Universal Licensing System and Coast Guard Vessel Documentation Center.

Last reported at 2017-Sep-19 18:30 UTC. Time now 2017-Sep-19 18:40 UTC.
Position N 40°43' W 074°01'.

Length 22 m.

Type: Passenger vessel. MMSI: 367482250.

Date/timePositionNaut miles runAvg speedWind from/ knotsBaromVisibWave heightAir tempDewpointWater temp
2017-Sep-19 18:30N 40°43' W 074°01'0 0.0
2017-Sep-19 18:00N 40°43' W 074°01'0 0.0
2017-Sep-19 17:30N 40°43' W 074°01'0 0.0
2017-Sep-19 17:00N 40°43' W 074°01'0 0.0
2017-Sep-19 16:30N 40°43' W 074°01'0 0.0
2017-Sep-19 16:00N 40°43' W 074°01'0 0.0
2017-Sep-19 15:30N 40°43' W 074°01'0 0.0
2017-Sep-19 15:00N 40°43' W 074°01'0 0.1
2017-Sep-19 14:30N 40°43' W 074°01'0 0.0
2017-Sep-19 14:00N 40°43' W 074°01'0 0.0
2017-Sep-19 13:30N 40°43' W 074°01'0 0.0
2017-Sep-19 13:00N 40°43' W 074°01'0 0.0
2017-Sep-19 12:31N 40°43' W 074°01'0 0.0
2017-Sep-19 12:01N 40°43' W 074°01'0 0.1
2017-Sep-19 11:30N 40°43' W 074°01'0 0.1
2017-Sep-19 11:00N 40°43' W 074°01'0 0.0
2017-Sep-19 10:30N 40°43' W 074°01'1 2.6
2017-Sep-19 10:00N 40°44' W 074°02'2 4.5
2017-Sep-19 09:30N 40°46' W 074°01'0 0.0
2017-Sep-18 23:52N 40°46' W 074°01'4 9.7
2017-Sep-18 23:30N 40°43' W 074°02'0 0.1
2017-Sep-18 23:00N 40°43' W 074°02'0 0.0
2017-Sep-18 22:30N 40°43' W 074°02'0 0.0
2017-Sep-18 22:00N 40°43' W 074°02'0 0.4
2017-Sep-18 21:30N 40°43' W 074°02'0 0.3
2017-Sep-18 21:00N 40°43' W 074°02'0 0.1
2017-Sep-18 20:31N 40°43' W 074°02'0 0.1
2017-Sep-18 20:01N 40°43' W 074°02'0 0.1
2017-Sep-18 19:30N 40°43' W 074°02'0 0.2
2017-Sep-18 19:00N 40°43' W 074°02'0 0.2
2017-Sep-18 18:31N 40°43' W 074°02'0 0.1
2017-Sep-18 18:01N 40°43' W 074°02'0 0.2
2017-Sep-18 17:30N 40°43' W 074°02'0 0.1
2017-Sep-18 17:00N 40°43' W 074°02'0 0.2
2017-Sep-18 16:31N 40°43' W 074°02'0 0.0
2017-Sep-18 16:00N 40°43' W 074°02'0 0.0
2017-Sep-18 15:30N 40°43' W 074°02'0 0.1
2017-Sep-18 15:00N 40°43' W 074°02'0 0.1
2017-Sep-18 14:30N 40°43' W 074°02'0 0.1
2017-Sep-18 14:00N 40°43' W 074°02'0 0.1
2017-Sep-18 13:30N 40°43' W 074°02'0 0.0
2017-Sep-18 13:01N 40°43' W 074°02'0 0.2
2017-Sep-18 12:31N 40°43' W 074°02'0 0.1
2017-Sep-18 12:01N 40°43' W 074°02'0 0.1
2017-Sep-18 11:30N 40°43' W 074°02'0 0.0
2017-Sep-18 11:00N 40°43' W 074°02'0 0.3
2017-Sep-18 10:30N 40°43' W 074°02'0 0.3
2017-Sep-18 10:01N 40°43' W 074°02'  
2017-Sep-16 00:28N 40°44' W 074°02'2 4.9
2017-Sep-16 00:00N 40°46' W 074°01'4 7.1
2017-Sep-15 23:30N 40°43' W 074°02'0 0.4
2017-Sep-15 23:00N 40°43' W 074°02'0 0.3
2017-Sep-15 22:30N 40°43' W 074°02'0 0.3
2017-Sep-15 22:01N 40°43' W 074°02'0 0.0
2017-Sep-15 21:30N 40°43' W 074°02'0 0.1
2017-Sep-15 21:00N 40°43' W 074°02'0 0.1
2017-Sep-15 20:30N 40°43' W 074°02'0 0.0
2017-Sep-15 20:00N 40°43' W 074°02'0 0.2
2017-Sep-15 19:30N 40°43' W 074°02'0 0.2
2017-Sep-15 19:01N 40°43' W 074°02'0 0.0
2017-Sep-15 18:31N 40°43' W 074°02'0 0.0
2017-Sep-15 18:00N 40°43' W 074°02'0 0.0
2017-Sep-15 17:30N 40°43' W 074°02'0 0.1
2017-Sep-15 17:00N 40°43' W 074°02'0 0.1
2017-Sep-15 16:30N 40°43' W 074°02'0 0.0
2017-Sep-15 16:00N 40°43' W 074°02'0 0.0
2017-Sep-15 15:30N 40°43' W 074°02'0 0.1
2017-Sep-15 15:00N 40°43' W 074°02'0 0.2
2017-Sep-15 14:30N 40°43' W 074°02'0 0.3
2017-Sep-15 14:00N 40°43' W 074°02'0 0.1
2017-Sep-15 13:30N 40°43' W 074°02'0 0.1
2017-Sep-15 13:00N 40°43' W 074°02'0 0.4
2017-Sep-15 12:31N 40°43' W 074°02'0 0.3
2017-Sep-15 12:00N 40°43' W 074°02'0 0.0
2017-Sep-15 11:30N 40°43' W 074°02'0 0.3
2017-Sep-15 11:01N 40°43' W 074°02'0 0.3
2017-Sep-15 10:30N 40°43' W 074°02'0 0.2
2017-Sep-15 10:00N 40°43' W 074°02'1 0.2
2017-Sep-15 03:11N 40°44' W 074°02'1 7.0
2017-Sep-15 03:01N 40°43' W 074°01'0 0.9
2017-Sep-15 02:31N 40°43' W 074°02'1 1.0
2017-Sep-15 02:00N 40°43' W 074°01'1 1.2
2017-Sep-15 01:31N 40°43' W 074°02'1 1.3
2017-Sep-15 01:00N 40°43' W 074°01'1 1.2
2017-Sep-15 00:30N 40°43' W 074°02'1 1.2
2017-Sep-15 00:00N 40°43' W 074°01'0 0.0
2017-Sep-14 23:30N 40°43' W 074°01'0 0.0
2017-Sep-14 23:00N 40°43' W 074°01'0 0.0
2017-Sep-14 22:00N 40°43' W 074°01'0 0.0
2017-Sep-14 21:30N 40°43' W 074°01'0 0.0
2017-Sep-14 21:00N 40°43' W 074°01'0 0.0
2017-Sep-14 20:30N 40°43' W 074°01'0 0.1
2017-Sep-14 20:00N 40°43' W 074°01'0 0.0
2017-Sep-14 19:30N 40°43' W 074°01'0 0.1
2017-Sep-14 19:00N 40°43' W 074°01'0 0.1
2017-Sep-14 18:30N 40°43' W 074°01'0 0.1
2017-Sep-14 18:00N 40°43' W 074°01'0 0.0
2017-Sep-14 17:30N 40°43' W 074°01'0 0.1
2017-Sep-14 17:00N 40°43' W 074°01'0 0.0
2017-Sep-14 16:30N 40°43' W 074°01'0 0.0
2017-Sep-14 16:00N 40°43' W 074°01'0 0.0
2017-Sep-14 15:30N 40°43' W 074°01'0 0.0
2017-Sep-14 15:01N 40°43' W 074°01'0 0.0
2017-Sep-14 14:30N 40°43' W 074°01'0 0.0
2017-Sep-14 14:00N 40°43' W 074°01'0 0.0
2017-Sep-14 13:30N 40°43' W 074°01'0 0.0
2017-Sep-14 13:00N 40°43' W 074°01'0 0.1
2017-Sep-14 12:30N 40°43' W 074°01'0 0.1
2017-Sep-14 12:00N 40°43' W 074°01'0 0.1
2017-Sep-14 11:30N 40°43' W 074°01'0 0.0
2017-Sep-14 11:00N 40°43' W 074°01'0 0.0
2017-Sep-14 10:30N 40°43' W 074°01'1 2.6
2017-Sep-14 10:00N 40°44' W 074°02'0 0.0
2017-Sep-14 00:26N 40°44' W 074°02'2 5.2
2017-Sep-14 00:00N 40°46' W 074°01'4 7.0
2017-Sep-13 23:30N 40°43' W 074°02'0 0.1
2017-Sep-13 23:00N 40°43' W 074°02'0 0.1
2017-Sep-13 22:31N 40°43' W 074°02'0 0.2
2017-Sep-13 22:00N 40°43' W 074°02'0 0.2
2017-Sep-13 21:30N 40°43' W 074°02'0 0.1
2017-Sep-13 21:00N 40°43' W 074°02'0 0.1
2017-Sep-13 20:30N 40°43' W 074°02'0 0.1
2017-Sep-13 20:00N 40°43' W 074°02'0 0.1
2017-Sep-13 19:30N 40°43' W 074°02'0 0.1
2017-Sep-13 19:00N 40°43' W 074°02'0 0.2
2017-Sep-13 18:30N 40°43' W 074°02'0 0.1
2017-Sep-13 18:01N 40°43' W 074°02'0 0.2
2017-Sep-13 17:30N 40°43' W 074°02'0 0.0
2017-Sep-13 17:00N 40°43' W 074°02'0 0.0
2017-Sep-13 16:30N 40°43' W 074°02'0 0.0
2017-Sep-13 16:00N 40°43' W 074°02'0 0.0
2017-Sep-13 15:30N 40°43' W 074°02'0 0.2
2017-Sep-13 15:00N 40°43' W 074°02'0 0.1
2017-Sep-13 14:30N 40°43' W 074°02'0 0.0
2017-Sep-13 14:00N 40°43' W 074°02'0 0.1
2017-Sep-13 13:30N 40°43' W 074°02'0 0.0
2017-Sep-13 13:01N 40°43' W 074°02'0 0.1
2017-Sep-13 12:30N 40°43' W 074°02'0 0.0
2017-Sep-13 12:00N 40°43' W 074°02'0 0.1
2017-Sep-13 11:30N 40°43' W 074°02'0 0.1
2017-Sep-13 11:00N 40°43' W 074°02'0 0.1
2017-Sep-13 10:31N 40°43' W 074°02'0 0.1
2017-Sep-13 10:00N 40°43' W 074°02'1 2.6
2017-Sep-13 09:30N 40°44' W 074°02'0 0.0
2017-Sep-13 03:12N 40°44' W 074°02'1 6.5
2017-Sep-13 03:00N 40°43' W 074°01'1 1.1
2017-Sep-13 02:30N 40°43' W 074°02'1 1.0
2017-Sep-13 02:00N 40°43' W 074°01'1 1.1
2017-Sep-13 01:30N 40°43' W 074°02'1 1.0
2017-Sep-13 01:00N 40°43' W 074°01'0 0.9
2017-Sep-13 00:30N 40°43' W 074°02'1 1.1
2017-Sep-13 00:00N 40°43' W 074°01'0 0.0
2017-Sep-12 23:31N 40°43' W 074°01'0 0.0
2017-Sep-12 23:00N 40°43' W 074°01'0 0.0
2017-Sep-12 22:30N 40°43' W 074°01'0 0.0
2017-Sep-12 22:00N 40°43' W 074°01'0 0.1
2017-Sep-12 21:30N 40°43' W 074°01'0 0.0
2017-Sep-12 21:00N 40°43' W 074°01'0 0.1
2017-Sep-12 20:31N 40°43' W 074°01'0 0.0
2017-Sep-12 20:00N 40°43' W 074°01'0 0.1
2017-Sep-12 19:31N 40°43' W 074°01'0 0.1
2017-Sep-12 19:01N 40°43' W 074°01'0 0.2
2017-Sep-12 18:30N 40°43' W 074°01'0 0.1
2017-Sep-12 18:00N 40°43' W 074°01'0 0.0
2017-Sep-12 17:30N 40°43' W 074°01'0 0.0
2017-Sep-12 17:00N 40°43' W 074°01'0 0.0
2017-Sep-12 16:30N 40°43' W 074°01'0 0.1
2017-Sep-12 16:00N 40°43' W 074°01'0 0.0
2017-Sep-12 15:30N 40°43' W 074°01'0 0.0
2017-Sep-12 15:00N 40°43' W 074°01'0 0.0
2017-Sep-12 14:30N 40°43' W 074°01'0 0.0
2017-Sep-12 14:01N 40°43' W 074°01'0 0.0
2017-Sep-12 13:31N 40°43' W 074°01'0 0.0
2017-Sep-12 13:01N 40°43' W 074°01'0 0.0
2017-Sep-12 12:31N 40°43' W 074°01'0 0.1
2017-Sep-12 12:00N 40°43' W 074°01'0 0.1
2017-Sep-12 11:30N 40°43' W 074°01'0 0.0
2017-Sep-12 11:00N 40°43' W 074°01'0 0.0
2017-Sep-12 10:30N 40°43' W 074°01'1 2.6
2017-Sep-12 10:01N 40°44' W 074°02'0 0.0
2017-Sep-12 00:24N 40°44' W 074°02'2 5.7
2017-Sep-12 00:00N 40°46' W 074°01'4 7.0
2017-Sep-11 23:30N 40°43' W 074°02'0 0.1
2017-Sep-11 23:01N 40°43' W 074°02'0 0.1
2017-Sep-11 22:30N 40°43' W 074°02'0 0.1
2017-Sep-11 22:00N 40°43' W 074°02'0 0.0
2017-Sep-11 21:30N 40°43' W 074°02'0 0.1
2017-Sep-11 21:00N 40°43' W 074°02'0 0.2
2017-Sep-11 20:31N 40°43' W 074°02'0 0.3
2017-Sep-11 20:01N 40°43' W 074°02'0 0.1
2017-Sep-11 19:31N 40°43' W 074°02'0 0.1
2017-Sep-11 19:01N 40°43' W 074°02'0 0.1
2017-Sep-11 18:31N 40°43' W 074°02'0 0.2
2017-Sep-11 18:01N 40°43' W 074°02'0 0.1
2017-Sep-11 17:31N 40°43' W 074°02'0 0.2
2017-Sep-11 17:01N 40°43' W 074°02'0 0.1
2017-Sep-11 16:30N 40°43' W 074°02'0 0.1
2017-Sep-11 16:01N 40°43' W 074°02'0 0.0
2017-Sep-11 15:30N 40°43' W 074°02'0 0.0
2017-Sep-11 15:00N 40°43' W 074°02'0 0.0
2017-Sep-11 14:30N 40°43' W 074°02'0 0.0
2017-Sep-11 14:00N 40°43' W 074°02'0 0.1
2017-Sep-11 13:30N 40°43' W 074°02'0 0.1
2017-Sep-11 13:01N 40°43' W 074°02'0 0.1
2017-Sep-11 12:30N 40°43' W 074°02'0 0.1
2017-Sep-11 12:00N 40°43' W 074°02'0 0.3
2017-Sep-11 11:30N 40°43' W 074°02'0 0.1
2017-Sep-11 11:01N 40°43' W 074°02'0 0.2
2017-Sep-11 10:30N 40°43' W 074°02'0 0.1
2017-Sep-11 10:00N 40°43' W 074°02'  

Dump ship's entire track history